createdAt,value
2023-01-13T00:01:27.607Z,2.77
2023-01-13T00:03:54.945Z,1.93
2023-01-13T00:06:27.880Z,2.50
2023-01-13T00:08:55.244Z,2.80
2023-01-13T00:11:23.289Z,2.20
2023-01-13T00:13:50.532Z,2.67
2023-01-13T00:16:19.093Z,2.43
2023-01-13T00:18:47.697Z,1.87
2023-01-13T00:21:18.681Z,2.17
2023-01-13T00:23:47.445Z,2.40
2023-01-13T00:26:21.814Z,2.30
2023-01-13T00:28:49.279Z,2.60
2023-01-13T00:31:21.189Z,2.37
2023-01-13T00:33:49.270Z,1.97
2023-01-13T00:36:18.298Z,2.80
2023-01-13T00:38:45.725Z,2.77
2023-01-13T00:41:16.244Z,2.47
2023-01-13T00:43:43.867Z,2.30
2023-01-13T00:46:16.863Z,2.87
2023-01-13T00:48:44.473Z,3.17
2023-01-13T00:51:15.792Z,2.37
2023-01-13T00:53:47.999Z,2.13
2023-01-13T00:56:41.169Z,3.30
2023-01-13T00:59:12.962Z,2.10
2023-01-13T01:01:41.663Z,3.10
2023-01-13T01:04:09.006Z,2.90
2023-01-13T01:06:36.167Z,2.00
2023-01-13T01:09:04.252Z,2.33
2023-01-13T01:11:32.866Z,2.10
2023-01-13T01:14:03.019Z,2.77
2023-01-13T01:16:32.832Z,2.70
2023-01-13T01:19:01.117Z,2.50
2023-01-13T01:21:29.155Z,3.00
2023-01-13T01:23:59.083Z,2.90
2023-01-13T01:26:28.759Z,2.80
2023-01-13T01:28:56.417Z,3.00
2023-01-13T01:31:33.202Z,3.87
2023-01-13T01:34:01.469Z,2.90
2023-01-13T01:36:30.352Z,2.60
2023-01-13T01:38:59.326Z,2.40
2023-01-13T01:41:30.541Z,3.43
2023-01-13T01:44:07.807Z,3.57
2023-01-13T01:46:43.895Z,4.00
2023-01-13T01:49:24.500Z,3.57
2023-01-13T01:52:02.352Z,2.20
2023-01-13T01:54:52.271Z,3.60
2023-01-13T01:57:29.404Z,3.83
2023-01-13T02:00:00.932Z,3.70
2023-01-13T02:02:30.573Z,3.97
2023-01-13T02:04:59.251Z,3.27
2023-01-13T02:07:30.612Z,3.87
2023-01-13T02:10:02.746Z,4.57
2023-01-13T02:12:30.249Z,3.50
2023-01-13T02:15:14.261Z,3.57
2023-01-13T02:17:53.166Z,4.33
2023-01-13T02:20:53.859Z,3.03
2023-01-13T02:24:07.358Z,4.33
2023-01-13T02:27:34.007Z,4.07
2023-01-13T02:30:41.494Z,3.47
2023-01-13T02:33:23.436Z,4.63
2023-01-13T02:36:05.264Z,3.80
2023-01-13T02:38:51.523Z,3.70
2023-01-13T02:42:39.404Z,3.90
2023-01-13T02:45:16.467Z,3.53
2023-01-13T02:47:47.587Z,4.20
2023-01-13T02:50:22.127Z,3.30
2023-01-13T02:53:17.754Z,4.77
2023-01-13T02:55:49.911Z,3.60
2023-01-13T02:58:21.249Z,4.00
2023-01-13T03:00:49.180Z,4.10
2023-01-13T03:03:16.452Z,3.30
2023-01-13T03:05:46.599Z,3.73
2023-01-13T03:08:42.812Z,4.20
2023-01-13T03:11:13.213Z,3.47
2023-01-13T03:14:04.729Z,2.83
2023-01-13T03:16:57.254Z,2.60
2023-01-13T03:19:59.619Z,3.30
2023-01-13T03:22:53.325Z,4.00
2023-01-13T03:25:36.084Z,2.63
2023-01-13T03:28:20.347Z,2.83
2023-01-13T03:30:56.950Z,2.60
2023-01-13T03:33:53.804Z,2.83
2023-01-13T03:36:26.123Z,2.40
2023-01-13T03:39:03.885Z,2.77
2023-01-13T03:41:44.466Z,2.30
2023-01-13T03:44:32.872Z,2.20
2023-01-13T03:47:14.843Z,2.60
2023-01-13T03:50:03.398Z,2.27
2023-01-13T03:52:36.840Z,1.90
2023-01-13T03:55:13.563Z,1.73
2023-01-13T03:57:53.682Z,2.03
2023-01-13T04:00:27.398Z,2.00
2023-01-13T04:03:04.441Z,2.43
2023-01-13T04:05:36.382Z,2.30
2023-01-13T04:08:25.211Z,2.00
2023-01-13T04:11:12.768Z,3.20
2023-01-13T04:13:43.147Z,2.17
2023-01-13T04:16:11.876Z,1.73
2023-01-13T04:18:40.292Z,2.30
2023-01-13T04:21:08.344Z,2.57
2023-01-13T04:23:35.656Z,3.37
2023-01-13T04:26:02.619Z,2.20
2023-01-13T04:28:29.661Z,2.17
2023-01-13T04:30:56.818Z,2.40
2023-01-13T04:33:23.933Z,2.20
2023-01-13T04:35:52.634Z,2.77
2023-01-13T04:38:21.539Z,2.17
2023-01-13T04:40:48.689Z,1.90
2023-01-13T04:43:16.061Z,2.87
2023-01-13T04:45:43.861Z,2.00
2023-01-13T04:48:11.271Z,2.83
2023-01-13T04:50:38.800Z,2.53
2023-01-13T04:53:06.171Z,2.57
2023-01-13T04:55:33.487Z,2.30
2023-01-13T04:58:10.148Z,2.30
2023-01-13T05:00:38.448Z,2.30
2023-01-13T05:03:05.501Z,2.40
2023-01-13T05:05:33.034Z,1.87
2023-01-13T05:08:00.229Z,3.13
2023-01-13T05:10:27.665Z,2.17
2023-01-13T05:13:13.399Z,2.03
2023-01-13T05:16:00.466Z,2.23
2023-01-13T05:18:29.845Z,2.40
2023-01-13T05:20:56.936Z,2.30
2023-01-13T05:23:42.860Z,2.20
2023-01-13T05:26:10.166Z,1.90
2023-01-13T05:28:37.499Z,1.97
2023-01-13T05:31:04.679Z,2.07
2023-01-13T05:33:32.747Z,2.33
2023-01-13T05:36:03.191Z,1.80
2023-01-13T05:38:30.415Z,1.90
2023-01-13T05:41:18.843Z,2.27
2023-01-13T05:43:45.855Z,1.97
2023-01-13T05:46:12.963Z,2.10
2023-01-13T05:48:42.914Z,2.77
2023-01-13T05:51:12.369Z,2.43
2023-01-13T05:53:42.410Z,2.10
2023-01-13T05:56:10.843Z,2.10
2023-01-13T05:58:38.307Z,3.07
2023-01-13T06:01:10.674Z,2.03
2023-01-13T06:03:38.392Z,2.40
2023-01-13T06:06:06.092Z,2.13
2023-01-13T06:08:33.201Z,1.97
2023-01-13T06:11:00.884Z,2.70
2023-01-13T06:13:28.029Z,2.33
2023-01-13T06:15:59.513Z,2.63
2023-01-13T06:18:27.772Z,2.13
2023-01-13T06:20:55.352Z,2.87
2023-01-13T06:23:22.405Z,2.83
2023-01-13T06:26:10.376Z,2.27
2023-01-13T06:28:37.420Z,2.30
2023-01-13T06:31:08.737Z,2.27
2023-01-13T06:33:49.478Z,2.10
2023-01-13T06:36:47.673Z,1.90
2023-01-13T06:39:20.173Z,2.37
2023-01-13T06:42:08.541Z,1.90
2023-01-13T06:44:35.608Z,2.07
2023-01-13T06:47:02.974Z,1.87
2023-01-13T06:49:30.379Z,2.57
2023-01-13T06:51:57.356Z,2.13
2023-01-13T06:54:25.840Z,2.10
2023-01-13T06:56:54.814Z,2.97
2023-01-13T06:59:22.756Z,2.20
2023-01-13T07:01:50.075Z,2.00
2023-01-13T07:04:17.232Z,2.20
2023-01-13T07:06:44.606Z,1.93
2023-01-13T07:09:11.703Z,2.20
2023-01-13T07:11:38.783Z,2.67
2023-01-13T07:14:24.732Z,2.60
2023-01-13T07:16:53.805Z,2.80
2023-01-13T07:19:23.936Z,2.30
2023-01-13T07:21:54.071Z,2.17
2023-01-13T07:24:22.559Z,2.17
2023-01-13T07:26:52.197Z,2.57
2023-01-13T07:29:19.379Z,2.27
2023-01-13T07:31:49.687Z,1.90
2023-01-13T07:34:17.225Z,1.90
2023-01-13T07:36:44.529Z,2.07
2023-01-13T07:39:11.639Z,2.30
2023-01-13T07:41:57.649Z,2.50
2023-01-13T07:44:24.940Z,2.00
2023-01-13T07:46:51.954Z,2.80
2023-01-13T07:49:18.997Z,2.17
2023-01-13T07:51:46.004Z,2.30
2023-01-13T07:54:12.965Z,2.10
2023-01-13T07:56:40.213Z,2.40
2023-01-13T07:59:07.345Z,2.87
2023-01-13T08:01:34.462Z,2.20
2023-01-13T08:04:01.590Z,2.73
2023-01-13T08:06:28.790Z,2.43
2023-01-13T08:08:55.790Z,2.30
2023-01-13T08:11:23.725Z,2.40
2023-01-13T08:13:55.021Z,2.90
2023-01-13T08:16:22.062Z,2.53
2023-01-13T08:18:49.168Z,2.50
2023-01-13T08:21:16.936Z,2.53
2023-01-13T08:23:45.198Z,3.10
2023-01-13T08:26:17.362Z,2.60
2023-01-13T08:28:45.674Z,2.47
2023-01-13T08:31:20.086Z,3.37
2023-01-13T08:33:47.340Z,2.93
2023-01-13T08:36:14.810Z,2.70
2023-01-13T08:38:42.251Z,3.43
2023-01-13T08:41:36.481Z,2.40
2023-01-13T08:44:03.909Z,2.77
2023-01-13T08:46:31.009Z,2.63
2023-01-13T08:48:58.297Z,3.90
2023-01-13T08:51:25.453Z,3.80
2023-01-13T08:53:52.460Z,3.50
2023-01-13T08:56:19.491Z,3.17
2023-01-13T08:58:46.859Z,2.70
2023-01-13T09:01:19.884Z,2.80
2023-01-13T09:03:47.069Z,3.70
2023-01-13T09:06:14.558Z,2.67
2023-01-13T09:08:41.872Z,3.07
2023-01-13T09:11:44.487Z,2.93
2023-01-13T09:14:11.450Z,3.27
2023-01-13T09:16:38.475Z,3.23
2023-01-13T09:19:05.475Z,5.20
2023-01-13T09:21:32.492Z,3.90
2023-01-13T09:23:59.656Z,2.93
2023-01-13T09:26:26.864Z,3.60
2023-01-13T09:28:53.856Z,3.47
2023-01-13T09:31:21.209Z,3.97
2023-01-13T09:34:07.065Z,3.43
2023-01-13T09:36:34.275Z,4.07
2023-01-13T09:39:01.445Z,3.17
2023-01-13T09:41:49.719Z,3.47
2023-01-13T09:44:48.455Z,4.03
2023-01-13T09:47:29.263Z,3.43
2023-01-13T09:50:28.969Z,2.83
2023-01-13T09:52:57.392Z,3.47
2023-01-13T09:55:37.917Z,4.23
2023-01-13T09:58:18.568Z,3.33
2023-01-13T10:00:58.444Z,3.67
2023-01-13T10:03:29.559Z,2.63
2023-01-13T10:06:42.438Z,4.07
2023-01-13T10:09:21.311Z,4.13
2023-01-13T10:12:09.241Z,3.97
2023-01-13T10:14:55.209Z,3.73
2023-01-13T10:17:58.344Z,3.77
2023-01-13T10:20:49.769Z,4.43
2023-01-13T10:23:46.688Z,3.93
2023-01-13T10:26:58.051Z,3.53
2023-01-13T10:29:28.627Z,3.87
2023-01-13T10:31:58.256Z,3.77
2023-01-13T10:34:27.637Z,4.40
2023-01-13T10:37:09.853Z,3.07
2023-01-13T10:39:46.397Z,4.82
2023-01-13T10:42:22.067Z,3.83
2023-01-13T10:44:55.322Z,5.70
2023-01-13T10:47:33.277Z,3.57
2023-01-13T10:50:05.448Z,3.30
2023-01-13T10:52:41.513Z,3.27
2023-01-13T10:55:33.387Z,2.73
2023-01-13T10:58:21.428Z,3.20
2023-01-13T11:00:58.390Z,3.50
2023-01-13T11:03:28.039Z,3.10
2023-01-13T11:06:00.356Z,3.80
2023-01-13T11:08:49.732Z,3.37
2023-01-13T11:11:43.575Z,4.00
2023-01-13T11:14:50.214Z,3.87
2023-01-13T11:17:47.197Z,3.17
2023-01-13T11:20:32.450Z,3.07
2023-01-13T11:23:08.310Z,4.17
2023-01-13T11:25:43.509Z,4.17
2023-01-13T11:28:38.150Z,3.83
2023-01-13T11:31:14.934Z,4.77
2023-01-13T11:33:53.577Z,2.97
2023-01-13T11:36:33.082Z,4.07
2023-01-13T11:39:20.828Z,3.90
2023-01-13T11:42:18.501Z,3.50
2023-01-13T11:45:03.386Z,3.50
2023-01-13T11:47:32.260Z,4.03
2023-01-13T11:50:00.400Z,3.90
2023-01-13T11:53:00.595Z,3.00
2023-01-13T11:56:04.727Z,4.33
2023-01-13T11:59:01.933Z,3.80
2023-01-13T12:01:52.941Z,3.40
2023-01-13T12:04:23.284Z,3.73
2023-01-13T12:07:36.649Z,3.37
2023-01-13T12:10:13.725Z,3.97
2023-01-13T12:13:00.181Z,3.47
2023-01-13T12:16:09.223Z,3.63
2023-01-13T12:19:17.649Z,3.47
2023-01-13T12:22:12.372Z,3.27
2023-01-13T12:25:32.571Z,3.23
2023-01-13T12:28:07.732Z,3.33
2023-01-13T12:30:56.538Z,2.80
2023-01-13T12:34:06.051Z,2.90
2023-01-13T12:36:50.813Z,3.23
2023-01-13T12:39:27.162Z,2.80
2023-01-13T12:42:28.698Z,2.73
2023-01-13T12:45:10.130Z,3.23
2023-01-13T12:47:45.667Z,3.33
2023-01-13T12:50:27.352Z,2.87
2023-01-13T12:53:21.351Z,2.30
2023-01-13T12:55:53.206Z,2.47
2023-01-13T12:58:28.570Z,3.27
2023-01-13T13:01:10.881Z,2.53
2023-01-13T13:03:38.315Z,2.47
2023-01-13T13:06:17.771Z,2.90
2023-01-13T13:08:58.682Z,2.50
2023-01-13T13:12:03.012Z,2.63
2023-01-13T13:14:42.138Z,3.00
2023-01-13T13:17:39.599Z,2.67
2023-01-13T13:21:06.980Z,3.30
2023-01-13T13:23:36.551Z,2.53
2023-01-13T13:26:30.972Z,2.27
2023-01-13T13:29:42.970Z,2.77
2023-01-13T13:32:25.832Z,2.73
2023-01-13T13:35:43.321Z,3.27
2023-01-13T13:39:07.938Z,2.83
2023-01-13T13:41:55.628Z,2.40
2023-01-13T13:44:56.231Z,2.40
2023-01-13T13:47:23.534Z,2.97
2023-01-13T13:49:54.527Z,2.57
2023-01-13T13:52:30.322Z,1.80
2023-01-13T13:55:07.741Z,2.60
2023-01-13T13:57:40.060Z,2.37
2023-01-13T14:00:29.980Z,1.93
2023-01-13T14:03:04.440Z,2.13
2023-01-13T14:05:34.903Z,2.47
2023-01-13T14:08:14.310Z,2.97
2023-01-13T14:10:43.452Z,2.23
2023-01-13T14:13:22.809Z,2.20
2023-01-13T14:16:13.814Z,2.43
2023-01-13T14:18:48.545Z,2.40
2023-01-13T14:21:20.506Z,1.97
2023-01-13T14:23:59.408Z,2.60
2023-01-13T14:26:32.615Z,2.40
2023-01-13T14:29:02.256Z,2.60
2023-01-13T14:31:30.510Z,2.53
2023-01-13T14:34:01.838Z,1.80
2023-01-13T14:36:38.952Z,2.27
2023-01-13T14:39:06.402Z,2.80
2023-01-13T14:41:42.483Z,2.67
2023-01-13T14:44:35.948Z,2.43
2023-01-13T14:47:28.592Z,2.67
2023-01-13T14:50:07.243Z,2.63
2023-01-13T14:52:47.044Z,2.57
2023-01-13T14:55:28.785Z,2.67
2023-01-13T14:58:20.655Z,2.30
2023-01-13T15:00:49.670Z,2.73
2023-01-13T15:03:21.123Z,3.07
2023-01-13T15:05:52.080Z,2.67
2023-01-13T15:08:34.718Z,2.80
2023-01-13T15:11:07.669Z,2.70
2023-01-13T15:13:53.368Z,2.80
2023-01-13T15:16:26.633Z,3.20
2023-01-13T15:18:57.977Z,2.80
2023-01-13T15:21:25.346Z,2.40
2023-01-13T15:23:52.446Z,3.37
2023-01-13T15:26:28.793Z,2.67
2023-01-13T15:28:58.515Z,3.33
2023-01-13T15:31:26.661Z,2.63
2023-01-13T15:33:54.699Z,1.93
2023-01-13T15:36:31.069Z,3.03
2023-01-13T15:39:00.048Z,3.40
2023-01-13T15:41:45.850Z,3.13
2023-01-13T15:44:33.429Z,2.83
2023-01-13T15:47:06.544Z,2.70
2023-01-13T15:49:42.258Z,2.40
2023-01-13T15:52:28.145Z,2.57
2023-01-13T15:54:55.364Z,2.37
2023-01-13T15:57:33.400Z,2.50
2023-01-13T16:00:20.504Z,2.73
2023-01-13T16:02:48.952Z,2.47
2023-01-13T16:05:16.917Z,2.47
2023-01-13T16:07:44.019Z,2.40
2023-01-13T16:10:24.067Z,2.60
2023-01-13T16:12:51.483Z,2.40
2023-01-13T16:15:22.445Z,2.83
2023-01-13T16:17:58.134Z,3.00
2023-01-13T16:20:26.265Z,2.00
2023-01-13T16:22:55.945Z,2.30
2023-01-13T16:25:26.547Z,2.03
2023-01-13T16:27:54.463Z,2.47
2023-01-13T16:30:28.989Z,2.13
2023-01-13T16:32:56.256Z,2.27
2023-01-13T16:35:24.557Z,1.90
2023-01-13T16:37:52.344Z,1.87
2023-01-13T16:40:31.961Z,1.83
2023-01-13T16:43:00.995Z,2.10
2023-01-13T16:45:28.256Z,2.17
2023-01-13T16:47:55.409Z,2.40
2023-01-13T16:50:36.320Z,2.90
2023-01-13T16:53:04.720Z,2.77
2023-01-13T16:55:32.458Z,2.53
2023-01-13T16:57:59.496Z,2.30
2023-01-13T17:00:27.005Z,2.00
2023-01-13T17:02:54.409Z,2.63
2023-01-13T17:05:21.746Z,2.00
2023-01-13T17:07:48.909Z,2.63
2023-01-13T17:10:20.320Z,1.83
2023-01-13T17:12:47.359Z,2.60
2023-01-13T17:15:17.232Z,1.67
2023-01-13T17:17:48.100Z,3.37
2023-01-13T17:20:16.390Z,2.63
2023-01-13T17:22:45.617Z,2.50
2023-01-13T17:25:14.864Z,2.43
2023-01-13T17:27:42.500Z,2.83
2023-01-13T17:30:14.211Z,2.30
2023-01-13T17:32:41.927Z,2.53
2023-01-13T17:35:09.919Z,2.23
2023-01-13T17:37:37.193Z,2.23
2023-01-13T17:40:05.019Z,3.30
2023-01-13T17:42:32.152Z,2.90
2023-01-13T17:44:59.151Z,2.50
2023-01-13T17:47:26.186Z,3.20
2023-01-13T17:49:53.246Z,3.20
2023-01-13T17:52:20.441Z,2.63
2023-01-13T17:54:47.460Z,2.73
2023-01-13T17:57:14.664Z,2.80
2023-01-13T17:59:41.821Z,2.73
2023-01-13T18:02:12.453Z,3.07
2023-01-13T18:04:40.173Z,2.70
2023-01-13T18:07:07.157Z,2.20
2023-01-13T18:09:34.382Z,3.37
2023-01-13T18:12:01.826Z,3.33
2023-01-13T18:14:28.915Z,3.03
2023-01-13T18:16:56.267Z,2.90
2023-01-13T18:19:42.198Z,2.90
2023-01-13T18:22:32.065Z,3.10
2023-01-13T18:25:18.063Z,2.90
2023-01-13T18:27:45.564Z,3.07
2023-01-13T18:30:14.980Z,3.00
2023-01-13T18:32:42.935Z,2.90
2023-01-13T18:35:10.713Z,2.50
2023-01-13T18:37:42.332Z,3.10
2023-01-13T18:40:13.406Z,3.33
2023-01-13T18:42:56.294Z,3.07
2023-01-13T18:45:30.768Z,2.90
2023-01-13T18:48:01.360Z,3.60
2023-01-13T18:50:29.409Z,2.83
2023-01-13T18:52:56.885Z,2.80
2023-01-13T18:55:24.452Z,3.17
2023-01-13T18:57:52.552Z,2.77
2023-01-13T19:00:21.586Z,3.10
2023-01-13T19:05:34.977Z,3.13
2023-01-13T19:08:03.349Z,3.20
2023-01-13T19:10:32.347Z,2.60
2023-01-13T19:13:01.166Z,2.57
2023-01-13T19:15:28.398Z,3.03
2023-01-13T19:17:55.456Z,2.83
2023-01-13T19:20:22.445Z,3.23
2023-01-13T19:22:54.233Z,2.90
2023-01-13T19:25:21.396Z,3.67
2023-01-13T19:27:48.562Z,3.33
2023-01-13T19:30:15.855Z,2.87
2023-01-13T19:32:42.898Z,3.07
2023-01-13T19:35:13.011Z,2.93
2023-01-13T19:37:40.417Z,2.67
2023-01-13T19:40:09.685Z,3.13
2023-01-13T19:42:55.612Z,2.70
2023-01-13T19:45:31.266Z,3.30
2023-01-13T19:48:01.923Z,3.00
2023-01-13T19:50:29.417Z,3.80
2023-01-13T19:52:56.553Z,3.43
2023-01-13T19:55:24.007Z,3.00
2023-01-13T19:57:51.005Z,3.90
2023-01-13T20:00:20.831Z,3.30
2023-01-13T20:02:51.804Z,3.37
2023-01-13T20:05:22.552Z,3.90
2023-01-13T20:07:51.324Z,2.80
2023-01-13T20:10:38.785Z,3.07
2023-01-13T20:13:06.627Z,3.67
2023-01-13T20:15:33.724Z,3.23
2023-01-13T20:18:00.868Z,2.70
2023-01-13T20:20:28.039Z,3.33
2023-01-13T20:22:55.203Z,3.60
2023-01-13T20:25:22.306Z,3.40
2023-01-13T20:27:49.603Z,3.80
2023-01-13T20:30:16.729Z,3.20
2023-01-13T20:32:45.079Z,2.90
2023-01-13T20:35:12.704Z,2.70
2023-01-13T20:37:42.168Z,3.60
2023-01-13T20:40:15.702Z,4.13
2023-01-13T20:42:45.229Z,3.13
2023-01-13T20:45:18.024Z,3.47
2023-01-13T20:47:45.675Z,3.40
2023-01-13T20:50:13.424Z,3.53
2023-01-13T20:52:40.666Z,3.90
2023-01-13T20:55:08.814Z,3.23
2023-01-13T20:57:36.050Z,4.50
2023-01-13T21:00:16.541Z,3.10
2023-01-13T21:02:44.051Z,4.13
2023-01-13T21:05:11.135Z,4.27
2023-01-13T21:07:38.342Z,4.90
2023-01-13T21:10:06.326Z,3.90
2023-01-13T21:12:52.179Z,4.10
2023-01-13T21:15:21.736Z,4.03
2023-01-13T21:18:09.743Z,3.73
2023-01-13T21:20:39.090Z,4.23
2023-01-13T21:23:07.171Z,3.97
2023-01-13T21:25:36.465Z,3.97
2023-01-13T21:28:06.793Z,5.03
2023-01-13T21:30:35.405Z,3.90
2023-01-13T21:33:04.204Z,4.20
2023-01-13T21:35:31.398Z,4.97
2023-01-13T21:37:58.548Z,5.90
2023-01-13T21:40:26.863Z,5.17
2023-01-13T21:43:12.604Z,4.23
2023-01-13T21:45:58.317Z,4.57
2023-01-13T21:48:25.431Z,4.70
2023-01-13T21:50:52.384Z,4.77
2023-01-13T21:53:19.542Z,4.13
2023-01-13T21:55:52.110Z,3.73
2023-01-13T21:58:19.329Z,4.30
2023-01-13T22:00:49.198Z,4.40
2023-01-13T22:03:18.517Z,4.90
2023-01-13T22:05:46.364Z,4.50
2023-01-13T22:08:13.638Z,4.23
2023-01-13T22:11:01.127Z,6.03
2023-01-13T22:13:48.034Z,5.40
2023-01-13T22:16:15.838Z,3.70
2023-01-13T22:18:43.210Z,4.07
2023-01-13T22:21:11.031Z,5.70
2023-01-13T22:23:38.248Z,5.50
2023-01-13T22:26:07.368Z,4.77
2023-01-13T22:28:40.717Z,4.03
2023-01-13T22:31:17.195Z,4.30
2023-01-13T22:33:48.075Z,4.73
2023-01-13T22:36:15.774Z,4.73
2023-01-13T22:38:42.941Z,4.63
2023-01-13T22:41:11.046Z,4.33
2023-01-13T22:43:39.266Z,4.00
2023-01-13T22:46:08.293Z,4.63
2023-01-13T22:48:35.984Z,3.47
2023-01-13T22:51:15.931Z,4.07
2023-01-13T22:53:44.387Z,4.20
2023-01-13T22:56:18.777Z,4.30
2023-01-13T22:58:46.530Z,3.93
2023-01-13T23:01:16.794Z,3.87
2023-01-13T23:03:47.712Z,4.17
2023-01-13T23:06:15.700Z,4.30
2023-01-13T23:08:42.806Z,4.27
2023-01-13T23:11:13.036Z,3.53
2023-01-13T23:13:43.148Z,4.17
2023-01-13T23:16:14.360Z,4.43
2023-01-13T23:18:48.558Z,4.50
2023-01-13T23:21:40.593Z,4.57
2023-01-13T23:24:09.551Z,4.47
2023-01-13T23:26:36.902Z,4.43
2023-01-13T23:29:11.084Z,4.77
2023-01-13T23:31:39.076Z,4.20
2023-01-13T23:34:09.112Z,4.00
2023-01-13T23:36:40.836Z,4.30
2023-01-13T23:39:08.409Z,5.07
2023-01-13T23:41:35.453Z,4.27
2023-01-13T23:44:02.506Z,3.70
2023-01-13T23:46:32.701Z,4.80
2023-01-13T23:49:01.718Z,4.00
2023-01-13T23:51:30.231Z,4.60
2023-01-13T23:53:58.710Z,4.07
2023-01-13T23:56:29.782Z,3.90
2023-01-13T23:58:57.881Z,3.67
